createdAt,value
2023-04-12T00:00:55.741Z,1001.41
2023-04-12T00:01:55.693Z,1001.41
2023-04-12T00:02:55.648Z,1001.37
2023-04-12T00:03:55.900Z,1001.36
2023-04-12T00:04:55.809Z,1001.32
2023-04-12T00:05:55.521Z,1001.29
2023-04-12T00:06:55.476Z,1001.27
2023-04-12T00:07:55.420Z,1001.21
2023-04-12T00:08:55.389Z,1001.22
2023-04-12T00:09:55.357Z,1001.17
2023-04-12T00:10:55.319Z,1001.20
2023-04-12T00:11:55.273Z,1001.15
2023-04-12T00:12:55.230Z,1001.14
2023-04-12T00:13:55.335Z,1001.17
2023-04-12T00:14:55.160Z,1001.14
2023-04-12T00:15:55.119Z,1001.12
2023-04-12T00:16:55.084Z,1001.08
2023-04-12T00:17:55.077Z,1001.07
2023-04-12T00:18:54.997Z,1001.03
2023-04-12T00:19:54.939Z,1001.01
2023-04-12T00:20:54.926Z,1000.95
2023-04-12T00:21:54.887Z,1000.98
2023-04-12T00:22:54.829Z,1000.97
2023-04-12T00:23:54.808Z,1000.92
2023-04-12T00:24:54.745Z,1000.88
2023-04-12T00:25:54.712Z,1000.91
2023-04-12T00:26:54.663Z,1000.88
2023-04-12T00:27:54.631Z,1000.82
2023-04-12T00:28:54.582Z,1000.80
2023-04-12T00:29:54.565Z,1000.80
2023-04-12T00:30:54.512Z,1000.77
2023-04-12T00:31:54.460Z,1000.73
2023-04-12T00:32:54.446Z,1000.71
2023-04-12T00:33:54.624Z,1000.69
2023-04-12T00:34:54.319Z,1000.63
2023-04-12T00:35:54.312Z,1000.53
2023-04-12T00:36:54.249Z,1000.52
2023-04-12T00:37:54.192Z,1000.48
2023-04-12T00:38:54.150Z,1000.45
2023-04-12T00:39:54.110Z,1000.43
2023-04-12T00:40:54.102Z,1000.44
2023-04-12T00:41:54.026Z,1000.43
2023-04-12T00:42:53.996Z,1000.38
2023-04-12T00:43:53.968Z,1000.32
2023-04-12T00:44:53.920Z,1000.35
2023-04-12T00:45:53.905Z,1000.35
2023-04-12T00:46:53.838Z,1000.31
2023-04-12T00:47:53.800Z,1000.25
2023-04-12T00:48:53.761Z,1000.23
2023-04-12T00:49:53.717Z,1000.23
2023-04-12T00:50:53.666Z,1000.16
2023-04-12T00:51:53.639Z,1000.21
2023-04-12T00:52:53.596Z,1000.22
2023-04-12T00:53:53.574Z,1000.16
2023-04-12T00:54:53.510Z,1000.17
2023-04-12T00:55:53.448Z,1000.15
2023-04-12T00:56:53.410Z,1000.15
2023-04-12T00:57:53.367Z,1000.11
2023-04-12T00:58:53.337Z,1000.14
2023-04-12T00:59:53.286Z,1000.13
2023-04-12T01:00:53.329Z,1000.08
2023-04-12T01:01:53.259Z,1000.07
2023-04-12T01:02:53.369Z,1000.05
2023-04-12T01:03:53.175Z,1000.06
2023-04-12T01:04:53.089Z,999.99
2023-04-12T01:05:53.040Z,999.98
2023-04-12T01:06:52.997Z,999.95
2023-04-12T01:07:52.939Z,999.91
2023-04-12T01:08:52.925Z,999.90
2023-04-12T01:09:52.859Z,999.86
2023-04-12T01:10:52.831Z,999.84
2023-04-12T01:11:52.786Z,999.77
2023-04-12T01:12:52.733Z,999.71
2023-04-12T01:13:52.696Z,999.64
2023-04-12T01:14:52.656Z,999.61
2023-04-12T01:15:52.646Z,999.62
2023-04-12T01:16:52.565Z,999.63
2023-04-12T01:17:52.559Z,999.66
2023-04-12T01:18:52.498Z,999.66
2023-04-12T01:19:52.446Z,999.65
2023-04-12T01:20:52.406Z,999.65
2023-04-12T01:21:52.371Z,999.61
2023-04-12T01:22:52.314Z,999.59
2023-04-12T01:23:52.278Z,999.56
2023-04-12T01:24:52.264Z,999.57
2023-04-12T01:25:52.223Z,999.53
2023-04-12T01:26:52.154Z,999.46
2023-04-12T01:27:52.129Z,999.48
2023-04-12T01:28:52.088Z,999.44
2023-04-12T01:29:52.027Z,999.48
2023-04-12T01:30:52.008Z,999.46
2023-04-12T01:31:51.964Z,999.42
2023-04-12T01:32:51.921Z,999.42
2023-04-12T01:33:51.896Z,999.43
2023-04-12T01:34:51.840Z,999.42
2023-04-12T01:35:51.807Z,999.33
2023-04-12T01:36:51.741Z,999.28
2023-04-12T01:37:51.735Z,999.25
2023-04-12T01:38:51.690Z,999.26
2023-04-12T01:39:51.613Z,999.28
2023-04-12T01:40:51.562Z,999.30
2023-04-12T01:41:51.524Z,999.25
2023-04-12T01:42:51.490Z,999.26
2023-04-12T01:43:51.475Z,999.23
2023-04-12T01:44:51.440Z,999.26
2023-04-12T01:45:51.366Z,999.19
2023-04-12T01:46:51.333Z,999.16
2023-04-12T01:47:51.297Z,999.05
2023-04-12T01:48:51.242Z,999.02
2023-04-12T01:49:51.190Z,998.99
2023-04-12T01:50:51.164Z,998.95
2023-04-12T01:51:51.128Z,998.95
2023-04-12T01:52:51.075Z,998.86
2023-04-12T01:53:51.035Z,998.90
2023-04-12T01:54:50.990Z,998.84
2023-04-12T01:55:50.972Z,998.82
2023-04-12T01:56:50.914Z,998.81
2023-04-12T01:57:50.893Z,998.80
2023-04-12T01:58:50.815Z,998.79
2023-04-12T01:59:50.772Z,998.74
2023-04-12T02:00:50.768Z,998.70
2023-04-12T02:01:50.763Z,998.66
2023-04-12T02:02:50.717Z,998.71
2023-04-12T02:03:50.867Z,998.64
2023-04-12T02:04:50.557Z,998.61
2023-04-12T02:05:50.531Z,998.57
2023-04-12T02:06:50.491Z,998.55
2023-04-12T02:07:50.438Z,998.46
2023-04-12T02:08:50.393Z,998.46
2023-04-12T02:09:50.354Z,998.47
2023-04-12T02:10:58.683Z,998.49
2023-04-12T02:11:51.342Z,998.35
2023-04-12T02:12:50.275Z,998.24
2023-04-12T02:13:50.191Z,998.22
2023-04-12T02:14:50.144Z,998.24
2023-04-12T02:15:50.158Z,998.23
2023-04-12T02:16:50.093Z,998.20
2023-04-12T02:17:50.422Z,998.22
2023-04-12T02:18:49.991Z,998.12
2023-04-12T02:19:51.323Z,998.09
2023-04-12T02:20:49.912Z,998.06
2023-04-12T02:21:50.724Z,998.14
2023-04-12T02:22:50.563Z,998.14
2023-04-12T02:23:50.848Z,998.14
2023-04-12T02:24:50.548Z,998.14
2023-04-12T02:25:51.276Z,998.08
2023-04-12T02:26:50.784Z,998.02
2023-04-12T02:27:50.554Z,998.01
2023-04-12T02:28:50.665Z,997.98
2023-04-12T02:29:49.510Z,997.99
2023-04-12T02:30:50.437Z,997.95
2023-04-12T02:31:50.272Z,998.01
2023-04-12T02:32:50.285Z,997.96
2023-04-12T02:33:50.208Z,997.94
2023-04-12T02:34:50.222Z,997.97
2023-04-12T02:35:50.213Z,997.97
2023-04-12T02:36:49.972Z,997.97
2023-04-12T02:37:50.355Z,997.83
2023-04-12T02:38:49.947Z,997.79
2023-04-12T02:39:49.097Z,997.79
2023-04-12T02:40:50.472Z,997.81
2023-04-12T02:41:50.026Z,997.79
2023-04-12T02:42:49.815Z,997.79
2023-04-12T02:43:50.316Z,997.68
2023-04-12T02:44:50.124Z,997.71
2023-04-12T02:45:49.721Z,997.67
2023-04-12T02:46:49.732Z,997.61
2023-04-12T02:47:49.722Z,997.59
2023-04-12T02:48:48.703Z,997.52
2023-04-12T02:49:49.672Z,997.50
2023-04-12T02:50:49.760Z,997.40
2023-04-12T02:51:49.744Z,997.40
2023-04-12T02:52:49.875Z,997.34
2023-04-12T02:53:50.123Z,997.41
2023-04-12T02:54:48.450Z,997.33
2023-04-12T02:55:49.365Z,997.38
2023-04-12T02:56:50.403Z,997.30
2023-04-12T02:57:49.715Z,997.21
2023-04-12T02:58:49.665Z,997.17
2023-04-12T02:59:49.018Z,997.16
2023-04-12T03:00:49.228Z,997.13
2023-04-12T03:01:49.183Z,997.08
2023-04-12T03:02:49.155Z,997.10
2023-04-12T03:03:50.146Z,997.02
2023-04-12T03:04:49.568Z,997.12
2023-04-12T03:05:48.953Z,997.04
2023-04-12T03:06:47.948Z,996.95
2023-04-12T03:07:49.257Z,996.90
2023-04-12T03:08:48.881Z,996.87
2023-04-12T03:09:48.660Z,996.89
2023-04-12T03:10:49.093Z,996.82
2023-04-12T03:11:48.751Z,996.90
2023-04-12T03:12:47.722Z,996.85
2023-04-12T03:13:48.814Z,996.76
2023-04-12T03:14:48.814Z,996.76
2023-04-12T03:15:48.430Z,996.74
2023-04-12T03:16:48.376Z,996.61
2023-04-12T03:17:48.518Z,996.69
2023-04-12T03:18:48.522Z,996.63
2023-04-12T03:19:48.259Z,996.57
2023-04-12T03:20:48.374Z,996.57
2023-04-12T03:21:48.204Z,996.52
2023-04-12T03:22:48.175Z,996.46
2023-04-12T03:23:48.157Z,996.47
2023-04-12T03:24:48.102Z,996.42
2023-04-12T03:25:47.145Z,996.36
2023-04-12T03:26:47.112Z,996.39
2023-04-12T03:27:47.053Z,996.33
2023-04-12T03:28:47.022Z,996.18
2023-04-12T03:29:46.970Z,996.28
2023-04-12T03:30:46.942Z,996.24
2023-04-12T03:31:46.886Z,996.14
2023-04-12T03:32:46.876Z,996.30
2023-04-12T03:33:46.811Z,996.22
2023-04-12T03:34:46.753Z,996.15
2023-04-12T03:35:46.751Z,996.15
2023-04-12T03:36:46.683Z,996.08
2023-04-12T03:37:46.664Z,996.15
2023-04-12T03:38:46.591Z,996.07
2023-04-12T03:39:46.554Z,996.06
2023-04-12T03:40:46.498Z,996.03
2023-04-12T03:41:46.458Z,996.12
2023-04-12T03:42:46.438Z,995.99
2023-04-12T03:43:46.375Z,995.94
2023-04-12T03:44:46.329Z,995.91
2023-04-12T03:45:46.309Z,995.82
2023-04-12T03:46:46.272Z,995.85
2023-04-12T03:47:46.269Z,995.79
2023-04-12T03:48:46.158Z,995.76
2023-04-12T03:49:54.146Z,995.75
2023-04-12T03:50:46.090Z,995.77
2023-04-12T03:51:46.071Z,995.76
2023-04-12T03:52:46.004Z,995.76
2023-04-12T03:53:45.948Z,995.69
2023-04-12T03:54:45.936Z,995.59
2023-04-12T03:55:45.891Z,995.57
2023-04-12T03:56:46.404Z,995.57
2023-04-12T03:57:45.785Z,995.53
2023-04-12T03:58:45.760Z,995.53
2023-04-12T03:59:45.708Z,995.61
2023-04-12T04:00:45.651Z,995.53
2023-04-12T04:01:45.659Z,995.48
2023-04-12T04:02:45.627Z,995.42
2023-04-12T04:03:46.570Z,995.40
2023-04-12T04:04:45.524Z,995.44
2023-04-12T04:05:45.454Z,995.36
2023-04-12T04:06:45.405Z,995.34
2023-04-12T04:07:45.361Z,995.35
2023-04-12T04:08:45.328Z,995.29
2023-04-12T04:09:45.292Z,995.25
2023-04-12T04:10:45.250Z,995.21
2023-04-12T04:11:45.194Z,995.15
2023-04-12T04:12:45.148Z,995.23
2023-04-12T04:13:45.104Z,995.10
2023-04-12T04:14:45.982Z,995.23
2023-04-12T04:15:45.972Z,995.06
2023-04-12T04:16:45.046Z,995.14
2023-04-12T04:17:45.010Z,995.04
2023-04-12T04:18:44.896Z,994.92
2023-04-12T04:19:44.855Z,995.03
2023-04-12T04:20:44.812Z,995.04
2023-04-12T04:21:44.773Z,994.97
2023-04-12T04:22:44.745Z,994.90
2023-04-12T04:23:44.709Z,994.88
2023-04-12T04:24:44.652Z,994.97
2023-04-12T04:25:44.600Z,994.93
2023-04-12T04:26:44.565Z,994.89
2023-04-12T04:27:44.524Z,994.88
2023-04-12T04:28:44.487Z,994.90
2023-04-12T04:29:44.452Z,994.86
2023-04-12T04:30:44.402Z,994.84
2023-04-12T04:31:44.411Z,994.84
2023-04-12T04:32:44.379Z,994.83
2023-04-12T04:33:44.264Z,994.85
2023-04-12T04:34:44.224Z,994.63
2023-04-12T04:35:44.212Z,994.90
2023-04-12T04:36:44.152Z,994.75
2023-04-12T04:37:44.106Z,994.73
2023-04-12T04:38:44.052Z,994.71
2023-04-12T04:39:44.044Z,994.71
2023-04-12T04:40:44.007Z,994.65
2023-04-12T04:41:43.938Z,994.73
2023-04-12T04:42:43.896Z,994.61
2023-04-12T04:43:43.847Z,994.69
2023-04-12T04:44:43.804Z,994.65
2023-04-12T04:45:43.794Z,994.73
2023-04-12T04:46:43.728Z,994.65
2023-04-12T04:47:43.741Z,994.61
2023-04-12T04:48:43.644Z,994.60
2023-04-12T04:49:43.603Z,994.57
2023-04-12T04:50:43.553Z,994.59
2023-04-12T04:51:43.531Z,994.62
2023-04-12T04:52:43.466Z,994.56
2023-04-12T04:53:43.435Z,994.59
2023-04-12T04:54:43.397Z,994.54
2023-04-12T04:55:43.356Z,994.51
2023-04-12T04:56:44.538Z,994.51
2023-04-12T04:57:43.266Z,994.54
2023-04-12T04:58:44.332Z,994.49
2023-04-12T04:59:44.172Z,994.49
2023-04-12T05:00:43.143Z,994.43
2023-04-12T05:01:44.153Z,994.41
2023-04-12T05:02:44.272Z,994.56
2023-04-12T05:03:44.032Z,994.32
2023-04-12T05:04:44.006Z,994.36
2023-04-12T05:05:43.824Z,994.38
2023-04-12T05:06:43.976Z,994.39
2023-04-12T05:07:43.826Z,994.36
2023-04-12T05:08:43.671Z,994.40
2023-04-12T05:09:43.740Z,994.37
2023-04-12T05:10:43.742Z,994.35
2023-04-12T05:11:43.595Z,994.36
2023-04-12T05:12:43.690Z,994.35
2023-04-12T05:13:43.584Z,994.34
2023-04-12T05:14:48.009Z,994.32
2023-04-12T05:15:43.309Z,994.32
2023-04-12T05:16:42.460Z,994.34
2023-04-12T05:17:42.415Z,994.41
2023-04-12T05:18:42.374Z,994.34
2023-04-12T05:19:42.340Z,994.31
2023-04-12T05:20:42.288Z,994.35
2023-04-12T05:21:42.250Z,994.23
2023-04-12T05:22:42.199Z,994.34
2023-04-12T05:23:42.176Z,994.25
2023-04-12T05:24:42.106Z,994.23
2023-04-12T05:25:42.088Z,994.31
2023-04-12T05:26:42.020Z,994.24
2023-04-12T05:27:41.988Z,994.16
2023-04-12T05:28:41.939Z,994.21
2023-04-12T05:29:41.900Z,994.22
2023-04-12T05:30:41.961Z,994.13
2023-04-12T05:31:41.819Z,994.15
2023-04-12T05:32:41.819Z,994.04
2023-04-12T05:33:41.733Z,994.16
2023-04-12T05:34:41.695Z,994.12
2023-04-12T05:35:43.526Z,994.05
2023-04-12T05:36:43.246Z,994.05
2023-04-12T05:37:42.413Z,994.14
2023-04-12T05:38:42.290Z,994.06
2023-04-12T05:39:42.380Z,994.12
2023-04-12T05:40:42.480Z,994.09
2023-04-12T05:41:42.294Z,994.09
2023-04-12T05:42:42.294Z,993.99
2023-04-12T05:43:41.359Z,994.00
2023-04-12T05:44:42.399Z,993.93
2023-04-12T05:45:42.126Z,993.91
2023-04-12T05:46:42.225Z,993.92
2023-04-12T05:47:42.221Z,993.83
2023-04-12T05:48:42.230Z,993.80
2023-04-12T05:49:42.527Z,993.80
2023-04-12T05:50:41.013Z,993.90
2023-04-12T05:51:41.805Z,993.79
2023-04-12T05:52:40.942Z,993.76
2023-04-12T05:53:40.881Z,993.75
2023-04-12T05:54:40.845Z,993.79
2023-04-12T05:55:48.610Z,993.78
2023-04-12T05:56:40.774Z,993.75
2023-04-12T05:57:51.352Z,993.75
2023-04-12T05:58:44.594Z,993.80
2023-04-12T05:59:40.678Z,993.79
2023-04-12T06:00:41.822Z,993.76
2023-04-12T06:01:46.134Z,993.73
2023-04-12T06:02:48.687Z,993.67
2023-04-12T06:03:43.515Z,993.71
2023-04-12T06:09:17.822Z,993.62
2023-04-12T06:17:23.044Z,993.47
2023-04-12T06:18:27.444Z,993.47
2023-04-12T06:19:22.657Z,993.57
2023-04-12T06:21:32.251Z,993.67
2023-04-12T06:22:23.644Z,993.58
2023-04-12T06:25:55.956Z,993.49
2023-04-12T06:26:57.958Z,993.39
2023-04-12T06:27:57.091Z,993.35
2023-04-12T06:28:54.502Z,993.37
2023-04-12T06:29:55.164Z,993.38
2023-04-12T06:30:55.263Z,993.43
2023-04-12T06:31:58.953Z,993.37
2023-04-12T06:32:55.097Z,993.36
2023-04-12T06:33:54.957Z,993.39
2023-04-12T06:34:54.957Z,993.35
2023-04-12T06:35:55.610Z,993.34
2023-04-12T06:37:07.365Z,993.27
2023-04-12T06:37:55.457Z,993.25
2023-04-12T06:38:55.475Z,993.28
2023-04-12T06:39:53.775Z,993.31
2023-04-12T06:40:53.770Z,993.27
2023-04-12T06:41:53.719Z,993.28
2023-04-12T06:42:56.451Z,993.25
2023-04-12T06:44:03.951Z,993.27
2023-04-12T06:44:55.221Z,993.23
2023-04-12T06:45:56.695Z,993.27
2023-04-12T06:46:55.220Z,993.23
2023-04-12T06:47:53.521Z,993.27
2023-04-12T06:48:55.021Z,993.22
2023-04-12T06:56:55.934Z,993.00
2023-04-12T06:57:34.104Z,993.04
2023-04-12T06:58:33.784Z,992.99
2023-04-12T06:59:33.216Z,992.84
2023-04-12T07:00:33.016Z,992.92
2023-04-12T07:01:33.028Z,992.81
2023-04-12T07:02:32.732Z,992.89
2023-04-12T07:03:34.856Z,992.90
2023-04-12T07:04:32.892Z,992.88
2023-04-12T07:05:32.981Z,992.86
2023-04-12T07:06:32.990Z,992.92
2023-04-12T07:07:32.666Z,992.94
2023-04-12T07:08:32.669Z,992.88
2023-04-12T07:09:32.823Z,992.88
2023-04-12T07:10:32.830Z,992.80
2023-04-12T07:11:32.803Z,992.76
2023-04-12T07:12:35.648Z,992.80
2023-04-12T07:13:32.648Z,992.78
2023-04-12T07:14:32.521Z,992.75
2023-04-12T07:15:32.426Z,992.71
2023-04-12T07:16:32.677Z,992.73
2023-04-12T07:17:32.602Z,992.76
2023-04-12T07:18:32.274Z,992.70
2023-04-12T07:19:32.321Z,992.72
2023-04-12T07:20:32.239Z,992.67
2023-04-12T07:21:32.270Z,992.62
2023-04-12T07:22:32.245Z,992.60
2023-04-12T07:23:32.426Z,992.57
2023-04-12T07:24:32.855Z,992.64
2023-04-12T07:25:32.173Z,992.64
2023-04-12T07:26:32.038Z,992.58
2023-04-12T07:27:32.078Z,992.69
2023-04-12T07:28:31.965Z,992.70
2023-04-12T07:29:31.981Z,992.70
2023-04-12T07:30:31.724Z,992.79
2023-04-12T07:31:32.027Z,992.68
2023-04-12T07:32:31.879Z,992.68
2023-04-12T07:33:31.928Z,992.63
2023-04-12T07:34:31.805Z,992.55
2023-04-12T07:35:32.498Z,992.45
2023-04-12T07:36:31.578Z,992.51
2023-04-12T07:37:31.816Z,992.43
2023-04-12T07:38:30.733Z,992.56
2023-04-12T07:39:31.399Z,992.48
2023-04-12T07:40:31.528Z,992.63
2023-04-12T07:41:30.529Z,992.42
2023-04-12T07:42:30.460Z,992.62
2023-04-12T07:43:30.457Z,992.59
2023-04-12T07:44:30.373Z,992.44
2023-04-12T07:45:30.343Z,992.40
2023-04-12T07:46:30.342Z,992.36
2023-04-12T07:47:30.301Z,992.39
2023-04-12T07:48:30.206Z,992.35
2023-04-12T07:49:30.186Z,992.35
2023-04-12T07:50:33.061Z,992.37
2023-04-12T07:51:56.337Z,992.33
2023-04-12T07:52:30.100Z,992.70
2023-04-12T07:53:37.609Z,992.47
2023-04-12T07:54:29.981Z,992.26
2023-04-12T07:55:32.448Z,992.29
2023-04-12T07:56:30.619Z,992.30
2023-04-12T07:57:30.356Z,992.40
2023-04-12T07:58:29.827Z,992.36
2023-04-12T07:59:29.785Z,992.36
2023-04-12T08:00:50.810Z,992.29
2023-04-12T08:01:29.667Z,992.35
2023-04-12T08:02:29.744Z,992.23
2023-04-12T08:03:29.702Z,992.36
2023-04-12T08:04:29.613Z,992.42
2023-04-12T08:05:29.514Z,992.39
2023-04-12T08:06:31.717Z,992.46
2023-04-12T08:07:29.514Z,992.48
2023-04-12T08:08:29.373Z,992.39
2023-04-12T08:09:29.331Z,992.41
2023-04-12T08:10:38.869Z,992.43
2023-04-12T08:11:29.323Z,992.43
2023-04-12T08:12:29.210Z,992.50
2023-04-12T08:13:29.211Z,992.47
2023-04-12T08:14:29.222Z,992.41
2023-04-12T08:15:29.505Z,992.42
2023-04-12T08:16:29.065Z,992.40
2023-04-12T08:17:29.132Z,992.44
2023-04-12T08:18:28.966Z,992.39
2023-04-12T08:19:28.934Z,992.38
2023-04-12T08:20:28.903Z,992.36
2023-04-12T08:21:28.863Z,992.34
2023-04-12T08:22:28.805Z,992.37
2023-04-12T08:23:28.800Z,992.30
2023-04-12T08:24:28.749Z,992.35
2023-04-12T08:25:28.680Z,992.33
2023-04-12T08:26:28.650Z,992.28
2023-04-12T08:27:28.594Z,992.22
2023-04-12T08:28:28.558Z,992.21
2023-04-12T08:29:28.526Z,992.20
2023-04-12T08:30:28.481Z,992.19
2023-04-12T08:31:28.445Z,992.20
2023-04-12T08:32:28.403Z,992.20
2023-04-12T08:33:28.340Z,992.28
2023-04-12T08:34:28.297Z,992.12
2023-04-12T08:35:28.272Z,992.48
2023-04-12T08:36:28.243Z,992.24
2023-04-12T08:37:28.182Z,992.52
2023-04-12T08:38:44.090Z,992.16
2023-04-12T08:39:28.116Z,992.20
2023-04-12T08:40:28.061Z,992.23
2023-04-12T08:41:28.020Z,992.18
2023-04-12T08:42:27.985Z,992.20
2023-04-12T08:43:27.927Z,992.21
2023-04-12T08:44:27.887Z,992.18
2023-04-12T08:45:27.843Z,992.15
2023-04-12T08:46:27.853Z,992.15
2023-04-12T08:47:27.816Z,992.12
2023-04-12T08:48:27.732Z,992.17
2023-04-12T08:49:27.678Z,992.08
2023-04-12T08:50:27.632Z,992.13
2023-04-12T08:51:27.610Z,992.13
2023-04-12T08:52:27.573Z,992.10
2023-04-12T08:53:27.522Z,992.11
2023-04-12T08:54:27.475Z,992.09
2023-04-12T08:55:27.462Z,992.12
2023-04-12T08:56:27.390Z,992.13
2023-04-12T08:57:27.355Z,992.12
2023-04-12T08:58:27.325Z,992.51
2023-04-12T08:59:27.274Z,992.18
2023-04-12T09:00:27.226Z,992.30
2023-04-12T09:01:27.223Z,992.14
2023-04-12T09:02:27.314Z,992.24
2023-04-12T09:03:27.347Z,992.17
2023-04-12T09:04:27.219Z,992.17
2023-04-12T09:05:27.125Z,992.20
2023-04-12T09:06:26.980Z,992.20
2023-04-12T09:07:26.938Z,992.49
2023-04-12T09:08:26.900Z,992.45
2023-04-12T09:09:26.865Z,992.48
2023-04-12T09:10:26.844Z,992.14
2023-04-12T09:11:26.793Z,992.32
2023-04-12T09:12:26.737Z,992.06
2023-04-12T09:13:26.720Z,992.04
2023-04-12T09:14:26.651Z,992.08
2023-04-12T09:15:26.613Z,992.14
2023-04-12T09:16:26.640Z,992.05
2023-04-12T09:17:26.600Z,992.03
2023-04-12T09:18:26.486Z,992.34
2023-04-12T09:19:26.470Z,992.08
2023-04-12T09:20:26.401Z,992.36
2023-04-12T09:21:26.361Z,992.03
2023-04-12T09:22:26.328Z,992.01
2023-04-12T09:23:26.313Z,991.96
2023-04-12T09:24:26.239Z,991.98
2023-04-12T09:25:26.233Z,992.28
2023-04-12T09:26:26.183Z,992.20
2023-04-12T09:27:26.132Z,992.30
2023-04-12T09:28:26.326Z,992.31
2023-04-12T09:29:26.053Z,991.94
2023-04-12T09:30:26.010Z,991.93
2023-04-12T09:31:25.997Z,991.93
2023-04-12T09:32:26.017Z,992.27
2023-04-12T09:33:25.888Z,991.92
2023-04-12T09:34:27.258Z,991.84
2023-04-12T09:35:25.809Z,991.90
2023-04-12T09:36:25.753Z,991.92
2023-04-12T09:37:25.737Z,991.98
2023-04-12T09:38:25.674Z,991.99
2023-04-12T09:39:25.634Z,991.98
2023-04-12T09:40:25.577Z,991.99
2023-04-12T09:41:27.249Z,992.04
2023-04-12T09:42:33.825Z,992.35
2023-04-12T09:43:25.598Z,992.09
2023-04-12T09:44:25.424Z,992.09
2023-04-12T09:45:25.537Z,992.05
2023-04-12T09:46:25.512Z,992.13
2023-04-12T09:47:25.359Z,992.18
2023-04-12T09:48:25.275Z,992.50
2023-04-12T09:49:25.253Z,992.25
2023-04-12T09:50:25.188Z,992.19
2023-04-12T09:51:25.150Z,992.17
2023-04-12T09:52:25.096Z,992.11
2023-04-12T09:53:25.052Z,992.06
2023-04-12T09:54:25.012Z,992.32
2023-04-12T09:55:24.989Z,992.04
2023-04-12T09:56:24.946Z,991.99
2023-04-12T09:57:24.917Z,992.00
2023-04-12T09:58:24.860Z,991.98
2023-04-12T09:59:25.685Z,992.00
2023-04-12T10:00:24.856Z,991.96
2023-04-12T10:01:24.766Z,991.98
2023-04-12T10:02:24.974Z,992.00
2023-04-12T10:03:24.952Z,992.01
2023-04-12T10:04:24.864Z,991.97
2023-04-12T10:05:24.831Z,991.94
2023-04-12T10:06:24.551Z,991.99
2023-04-12T10:07:24.499Z,992.02
2023-04-12T10:08:24.481Z,992.09
2023-04-12T10:09:24.430Z,992.13
2023-04-12T10:10:24.404Z,992.14
2023-04-12T10:11:24.328Z,992.12
2023-04-12T10:12:24.325Z,992.18
2023-04-12T10:13:24.331Z,992.18
2023-04-12T10:14:24.304Z,992.30
2023-04-12T10:15:24.183Z,992.34
2023-04-12T10:16:24.217Z,992.33
2023-04-12T10:17:24.158Z,992.34
2023-04-12T10:18:24.099Z,992.28
2023-04-12T10:19:24.044Z,992.19
2023-04-12T10:20:26.341Z,992.19
2023-04-12T10:21:23.946Z,992.12
2023-04-12T10:22:23.921Z,992.06
2023-04-12T10:23:23.868Z,992.02
2023-04-12T10:24:23.893Z,992.27
2023-04-12T10:25:23.858Z,991.96
2023-04-12T10:26:23.771Z,991.94
2023-04-12T10:27:23.702Z,991.92
2023-04-12T10:28:23.693Z,991.85
2023-04-12T10:29:23.632Z,991.85
2023-04-12T10:30:23.609Z,991.79
2023-04-12T10:31:23.668Z,991.79
2023-04-12T10:32:23.615Z,991.79
2023-04-12T10:33:23.522Z,991.80
2023-04-12T10:34:23.486Z,991.77
2023-04-12T10:35:23.402Z,991.81
2023-04-12T10:36:23.411Z,991.80
2023-04-12T10:37:23.317Z,991.85
2023-04-12T10:38:23.314Z,991.82
2023-04-12T10:39:23.273Z,991.83
2023-04-12T10:40:23.222Z,991.93
2023-04-12T10:41:23.193Z,991.94
2023-04-12T10:42:23.253Z,991.96
2023-04-12T10:43:23.111Z,992.03
2023-04-12T10:44:23.063Z,992.03
2023-04-12T10:45:23.022Z,992.01
2023-04-12T10:46:23.009Z,992.02
2023-04-12T10:47:23.020Z,992.01
2023-04-12T10:48:22.939Z,992.01
2023-04-12T10:49:22.904Z,992.01
2023-04-12T10:50:22.873Z,992.04
2023-04-12T10:51:22.905Z,992.06
2023-04-12T10:52:22.751Z,992.08
2023-04-12T10:53:22.708Z,992.10
2023-04-12T10:54:22.654Z,992.42
2023-04-12T10:55:22.617Z,992.10
2023-04-12T10:56:22.591Z,992.12
2023-04-12T10:57:22.560Z,992.15
2023-04-12T10:58:22.500Z,992.17
2023-04-12T10:59:25.568Z,992.16
2023-04-12T11:00:22.468Z,992.10
2023-04-12T11:01:22.457Z,992.13
2023-04-12T11:02:22.434Z,992.12
2023-04-12T11:03:22.642Z,992.14
2023-04-12T11:04:22.413Z,992.17
2023-04-12T11:05:22.249Z,992.20
2023-04-12T11:06:27.562Z,992.20
2023-04-12T11:07:22.139Z,992.23
2023-04-12T11:08:22.102Z,992.24
2023-04-12T11:09:22.109Z,992.22
2023-04-12T11:10:22.038Z,992.22
2023-04-12T11:11:21.981Z,992.19
2023-04-12T11:12:21.954Z,992.16
2023-04-12T11:13:21.897Z,992.23
2023-04-12T11:14:21.870Z,992.24
2023-04-12T11:15:21.882Z,992.23
2023-04-12T11:16:21.849Z,992.23
2023-04-12T11:17:21.860Z,992.25
2023-04-12T11:18:21.794Z,992.24
2023-04-12T11:19:21.667Z,992.24
2023-04-12T11:20:21.658Z,992.25
2023-04-12T11:21:21.596Z,992.26
2023-04-12T11:22:21.555Z,992.24
2023-04-12T11:23:21.506Z,992.29
2023-04-12T11:24:21.546Z,992.67
2023-04-12T11:25:21.490Z,992.33
2023-04-12T11:26:21.409Z,992.33
2023-04-12T11:27:21.357Z,992.33
2023-04-12T11:28:27.949Z,992.32
2023-04-12T11:29:21.286Z,992.34
2023-04-12T11:30:21.239Z,992.36
2023-04-12T11:31:21.230Z,992.29
2023-04-12T11:32:21.302Z,992.32
2023-04-12T11:33:21.134Z,992.34
2023-04-12T11:34:21.106Z,992.35
2023-04-12T11:35:21.055Z,992.36
2023-04-12T11:36:21.010Z,992.35
2023-04-12T11:37:20.967Z,992.35
2023-04-12T11:38:20.939Z,992.34
2023-04-12T11:39:20.921Z,992.35
2023-04-12T11:40:20.862Z,992.39
2023-04-12T11:41:20.825Z,992.42
2023-04-12T11:42:20.792Z,992.42
2023-04-12T11:43:20.751Z,992.43
2023-04-12T11:44:20.706Z,992.49
2023-04-12T11:45:20.679Z,992.51
2023-04-12T11:46:20.725Z,992.48
2023-04-12T11:47:20.607Z,992.49
2023-04-12T11:48:20.565Z,992.51
2023-04-12T11:49:20.534Z,992.54
2023-04-12T11:50:20.486Z,992.54
2023-04-12T11:51:20.562Z,992.75
2023-04-12T11:52:20.415Z,992.58
2023-04-12T11:53:20.361Z,992.61
2023-04-12T11:54:20.333Z,992.76
2023-04-12T11:55:20.284Z,992.66
2023-04-12T11:56:20.257Z,993.00
2023-04-12T11:57:20.230Z,992.68
2023-04-12T11:58:20.181Z,993.01
2023-04-12T11:59:20.142Z,992.71
2023-04-12T12:00:20.109Z,993.11
2023-04-12T12:01:20.074Z,992.70
2023-04-12T12:02:23.419Z,992.71
2023-04-12T12:03:20.145Z,993.06
2023-04-12T12:04:20.169Z,992.72
2023-04-12T12:05:20.253Z,992.72
2023-04-12T12:06:20.010Z,993.06
2023-04-12T12:07:20.143Z,992.72
2023-04-12T12:08:19.833Z,992.70
2023-04-12T12:09:19.779Z,992.69
2023-04-12T12:10:36.596Z,992.71
2023-04-12T12:11:19.706Z,992.70
2023-04-12T12:12:19.671Z,992.68
2023-04-12T12:13:19.634Z,992.68
2023-04-12T12:14:19.625Z,992.69
2023-04-12T12:15:19.559Z,992.61
2023-04-12T12:16:19.538Z,992.61
2023-04-12T12:17:19.551Z,992.63
2023-04-12T12:18:19.455Z,992.63
2023-04-12T12:19:19.415Z,992.65
2023-04-12T12:20:19.405Z,992.65
2023-04-12T12:21:19.352Z,993.04
2023-04-12T12:22:19.326Z,992.65
2023-04-12T12:23:19.298Z,992.61
2023-04-12T12:24:19.245Z,992.62
2023-04-12T12:25:19.197Z,992.57
2023-04-12T12:26:19.593Z,992.53
2023-04-12T12:27:19.187Z,992.91
2023-04-12T12:28:19.181Z,992.92
2023-04-12T12:29:19.054Z,992.79
2023-04-12T12:30:19.020Z,992.63
2023-04-12T12:31:19.041Z,992.58
2023-04-12T12:32:19.019Z,992.89
2023-04-12T12:33:18.909Z,992.52
2023-04-12T12:34:18.881Z,992.52
2023-04-12T12:35:18.844Z,992.92
2023-04-12T12:36:18.849Z,992.65
2023-04-12T12:37:18.780Z,993.00
2023-04-12T12:38:18.750Z,993.00
2023-04-12T12:39:18.704Z,992.67
2023-04-12T12:40:18.674Z,992.61
2023-04-12T12:41:18.636Z,992.59
2023-04-12T12:42:18.596Z,992.57
2023-04-12T12:43:18.566Z,992.53
2023-04-12T12:44:18.517Z,992.56
2023-04-12T12:45:18.485Z,992.51
2023-04-12T12:46:18.480Z,992.51
2023-04-12T12:47:18.449Z,992.47
2023-04-12T12:48:18.584Z,992.50